createdAt,value
2022-10-09T00:01:16.280Z,12.65
2022-10-09T00:03:45.584Z,12.64
2022-10-09T00:06:21.288Z,12.70
2022-10-09T00:08:48.433Z,12.66
2022-10-09T00:11:21.492Z,12.64
2022-10-09T00:13:49.237Z,12.55
2022-10-09T00:16:18.497Z,12.35
2022-10-09T00:18:46.053Z,12.04
2022-10-09T00:21:33.674Z,12.68
2022-10-09T00:24:02.993Z,12.49
2022-10-09T00:26:30.235Z,12.59
2022-10-09T00:28:57.766Z,12.56
2022-10-09T00:31:25.075Z,12.48
2022-10-09T00:33:52.324Z,12.10
2022-10-09T00:36:22.181Z,12.54
2022-10-09T00:38:49.889Z,12.59
2022-10-09T00:41:23.273Z,12.58
2022-10-09T00:43:53.979Z,12.56
2022-10-09T00:46:36.083Z,12.62
2022-10-09T00:49:14.711Z,12.45
2022-10-09T00:51:44.831Z,12.59
2022-10-09T00:54:15.051Z,12.55
2022-10-09T00:56:42.741Z,12.57
2022-10-09T00:59:11.689Z,11.70
2022-10-09T01:01:40.592Z,12.38
2022-10-09T01:04:07.884Z,12.55
2022-10-09T01:07:05.470Z,12.53
2022-10-09T01:09:56.892Z,12.49
2022-10-09T01:12:51.846Z,12.53
2022-10-09T01:15:33.638Z,12.44
2022-10-09T01:18:09.454Z,12.40
2022-10-09T01:21:05.560Z,11.92
2022-10-09T01:23:32.524Z,12.29
2022-10-09T01:26:02.113Z,12.23
2022-10-09T01:28:30.541Z,12.16
2022-10-09T01:31:00.351Z,12.14
2022-10-09T01:33:30.710Z,12.18
2022-10-09T01:35:59.341Z,12.15
2022-10-09T01:38:29.656Z,11.84
2022-10-09T01:40:57.887Z,11.85
2022-10-09T01:43:24.924Z,12.26
2022-10-09T01:45:52.058Z,12.28
2022-10-09T01:48:25.198Z,11.92
2022-10-09T01:51:01.897Z,12.27
2022-10-09T01:53:30.100Z,11.67
2022-10-09T01:56:07.576Z,12.07
2022-10-09T01:58:59.859Z,12.24
2022-10-09T02:01:33.145Z,12.26
2022-10-09T02:04:03.197Z,12.23
2022-10-09T02:06:31.594Z,12.00
2022-10-09T02:08:59.718Z,12.21
2022-10-09T02:11:31.936Z,12.10
2022-10-09T02:13:59.730Z,12.22
2022-10-09T02:16:37.562Z,11.97
2022-10-09T02:19:25.558Z,12.06
2022-10-09T02:22:16.470Z,12.11
2022-10-09T02:24:44.353Z,11.91
2022-10-09T02:27:12.743Z,11.94
2022-10-09T02:29:45.219Z,11.63
2022-10-09T02:32:12.875Z,11.89
2022-10-09T02:34:40.070Z,11.87
2022-10-09T02:37:07.374Z,11.81
2022-10-09T02:39:34.501Z,11.63
2022-10-09T02:42:01.649Z,11.91
2022-10-09T02:44:28.722Z,11.85
2022-10-09T02:46:55.757Z,11.90
2022-10-09T02:49:22.834Z,11.86
2022-10-09T02:51:49.960Z,11.88
2022-10-09T02:54:17.063Z,11.83
2022-10-09T02:56:44.062Z,11.83
2022-10-09T02:59:11.074Z,11.46
2022-10-09T03:01:38.279Z,11.76
2022-10-09T03:04:05.567Z,11.74
2022-10-09T03:06:34.531Z,11.86
2022-10-09T03:09:01.538Z,11.50
2022-10-09T03:11:28.737Z,10.96
2022-10-09T03:13:56.336Z,11.88
2022-10-09T03:16:25.784Z,11.82
2022-10-09T03:18:53.806Z,11.79
2022-10-09T03:21:23.569Z,11.76
2022-10-09T03:23:51.950Z,11.83
2022-10-09T03:26:22.448Z,11.95
2022-10-09T03:28:51.206Z,11.78
2022-10-09T03:31:47.047Z,11.87
2022-10-09T03:34:07.482Z,11.95
2022-10-09T03:36:34.522Z,11.93
2022-10-09T03:39:01.555Z,11.16
2022-10-09T03:41:28.554Z,11.30
2022-10-09T03:43:55.590Z,11.63
2022-10-09T03:46:22.811Z,11.50
2022-10-09T03:48:49.813Z,11.37
2022-10-09T03:51:16.941Z,11.55
2022-10-09T03:53:44.101Z,11.57
2022-10-09T03:56:11.152Z,11.56
2022-10-09T03:58:38.279Z,11.06
2022-10-09T04:01:05.422Z,11.49
2022-10-09T04:03:32.673Z,11.05
2022-10-09T04:05:59.603Z,11.45
2022-10-09T04:08:26.665Z,11.03
2022-10-09T04:11:01.237Z,11.62
2022-10-09T04:13:28.418Z,11.58
2022-10-09T04:15:56.605Z,11.61
2022-10-09T04:18:23.880Z,11.56
2022-10-09T04:20:52.278Z,11.63
2022-10-09T04:23:20.176Z,11.34
2022-10-09T04:25:47.414Z,11.69
2022-10-09T04:28:14.684Z,11.38
2022-10-09T04:30:41.761Z,11.69
2022-10-09T04:33:12.809Z,11.77
2022-10-09T04:35:49.432Z,11.80
2022-10-09T04:38:16.498Z,11.43
2022-10-09T04:40:43.893Z,11.85
2022-10-09T04:43:10.988Z,11.39
2022-10-09T04:45:41.871Z,11.26
2022-10-09T04:48:08.881Z,11.26
2022-10-09T04:50:39.211Z,11.32
2022-10-09T04:53:06.262Z,11.87
2022-10-09T04:55:33.264Z,11.94
2022-10-09T04:58:00.457Z,12.02
2022-10-09T05:00:27.554Z,11.83
2022-10-09T05:02:54.820Z,11.86
2022-10-09T05:05:21.937Z,12.06
2022-10-09T05:07:49.147Z,11.98
2022-10-09T05:10:16.153Z,11.95
2022-10-09T05:12:43.175Z,12.09
2022-10-09T05:15:10.588Z,11.80
2022-10-09T05:17:37.596Z,12.26
2022-10-09T05:20:04.775Z,12.21
2022-10-09T05:22:31.923Z,12.36
2022-10-09T05:24:58.952Z,12.46
2022-10-09T05:27:25.958Z,12.56
2022-10-09T05:29:53.016Z,12.68
2022-10-09T05:32:19.965Z,12.71
2022-10-09T05:34:47.080Z,12.75
2022-10-09T05:37:14.227Z,12.91
2022-10-09T05:39:41.241Z,12.83
2022-10-09T05:42:08.259Z,12.96
2022-10-09T05:44:35.353Z,13.08
2022-10-09T05:47:02.441Z,13.21
2022-10-09T05:49:29.411Z,13.28
2022-10-09T05:51:56.423Z,13.34
2022-10-09T05:54:23.423Z,13.48
2022-10-09T05:56:50.709Z,13.54
2022-10-09T05:59:22.202Z,13.71
2022-10-09T06:01:51.810Z,13.76
2022-10-09T06:04:24.086Z,13.80
2022-10-09T06:06:51.756Z,13.87
2022-10-09T06:09:24.490Z,13.88
2022-10-09T06:11:53.055Z,13.72
2022-10-09T06:14:22.349Z,13.47
2022-10-09T06:16:50.337Z,13.98
2022-10-09T06:19:19.510Z,13.93
2022-10-09T06:21:47.751Z,14.13
2022-10-09T06:24:28.693Z,14.15
2022-10-09T06:26:57.556Z,14.38
2022-10-09T06:29:24.853Z,14.00
2022-10-09T06:31:51.862Z,14.45
2022-10-09T06:34:19.120Z,14.69
2022-10-09T06:36:46.029Z,14.96
2022-10-09T06:39:13.389Z,15.29
2022-10-09T06:41:40.477Z,15.60
2022-10-09T06:44:25.724Z,15.66
2022-10-09T06:46:52.716Z,15.80
2022-10-09T06:49:19.679Z,16.33
2022-10-09T06:51:46.917Z,16.91
2022-10-09T06:54:16.350Z,17.70
2022-10-09T06:56:43.735Z,18.55
2022-10-09T06:59:11.695Z,18.93
2022-10-09T07:01:38.816Z,19.04
2022-10-09T07:04:09.981Z,18.80
2022-10-09T07:06:39.907Z,18.44
2022-10-09T07:09:11.951Z,18.12
2022-10-09T07:11:43.437Z,17.81
2022-10-09T07:14:12.668Z,17.23
2022-10-09T07:16:41.873Z,17.08
2022-10-09T07:19:11.828Z,17.39
2022-10-09T07:21:41.585Z,17.25
2022-10-09T07:24:09.190Z,17.47
2022-10-09T07:26:39.851Z,17.68
2022-10-09T07:29:09.236Z,17.74
2022-10-09T07:31:36.366Z,18.02
2022-10-09T07:34:04.079Z,17.89
2022-10-09T07:36:31.089Z,17.83
2022-10-09T07:38:59.253Z,17.66
2022-10-09T07:41:28.195Z,17.43
2022-10-09T07:43:55.321Z,17.26
2022-10-09T07:46:24.348Z,17.65
2022-10-09T07:48:51.548Z,17.90
2022-10-09T07:51:26.895Z,18.74
2022-10-09T07:53:54.079Z,19.44
2022-10-09T07:56:24.060Z,20.08
2022-10-09T07:58:52.469Z,21.42
2022-10-09T08:01:20.768Z,23.03
2022-10-09T08:03:48.608Z,24.71
2022-10-09T08:06:16.258Z,25.83
2022-10-09T08:08:45.629Z,26.55
2022-10-09T08:11:15.779Z,28.08
2022-10-09T08:13:43.867Z,28.83
2022-10-09T08:16:12.203Z,29.83
2022-10-09T08:18:39.940Z,30.14
2022-10-09T08:21:16.312Z,30.35
2022-10-09T08:23:43.651Z,31.21
2022-10-09T08:26:22.216Z,30.91
2022-10-09T08:28:59.846Z,30.35
2022-10-09T08:31:28.188Z,30.00
2022-10-09T08:33:56.924Z,29.63
2022-10-09T08:36:25.015Z,29.63
2022-10-09T08:38:52.499Z,29.72
2022-10-09T08:41:45.378Z,30.19
2022-10-09T08:44:33.532Z,31.24
2022-10-09T08:47:07.471Z,31.67
2022-10-09T08:50:01.051Z,32.23
2022-10-09T08:53:03.997Z,32.69
2022-10-09T08:55:51.156Z,33.00
2022-10-09T08:58:21.240Z,32.96
2022-10-09T09:00:54.453Z,32.39
2022-10-09T09:03:48.037Z,31.93
2022-10-09T09:06:30.445Z,31.64
2022-10-09T09:09:07.480Z,30.69
2022-10-09T09:11:46.324Z,29.78
2022-10-09T09:14:38.180Z,28.75
2022-10-09T09:17:23.661Z,27.74
2022-10-09T09:20:09.050Z,26.14
2022-10-09T09:22:39.690Z,25.49
2022-10-09T09:25:29.036Z,25.06
2022-10-09T09:28:02.989Z,24.55
2022-10-09T09:30:48.588Z,24.56
2022-10-09T09:33:23.076Z,24.43
2022-10-09T09:36:19.331Z,24.09
2022-10-09T09:39:12.881Z,23.52
2022-10-09T09:41:33.267Z,23.62
2022-10-09T09:44:00.166Z,23.20
2022-10-09T09:46:30.126Z,23.33
2022-10-09T09:48:57.227Z,23.28
2022-10-09T09:51:32.228Z,23.05
2022-10-09T09:54:05.842Z,22.76
2022-10-09T09:57:07.161Z,22.55
2022-10-09T09:59:27.080Z,22.66
2022-10-09T10:02:21.590Z,22.80
2022-10-09T10:04:52.863Z,22.67
2022-10-09T10:07:37.347Z,22.60
2022-10-09T10:10:08.203Z,22.61
2022-10-09T10:12:44.888Z,22.25
2022-10-09T10:15:25.853Z,22.27
2022-10-09T10:18:01.847Z,21.58
2022-10-09T10:20:32.174Z,21.62
2022-10-09T10:23:00.622Z,21.38
2022-10-09T10:25:33.579Z,21.05
2022-10-09T10:28:17.032Z,20.61
2022-10-09T10:30:44.662Z,20.83
2022-10-09T10:33:26.025Z,20.14
2022-10-09T10:35:56.360Z,20.40
2022-10-09T10:38:42.212Z,20.80
2022-10-09T10:41:17.935Z,20.23
2022-10-09T10:43:48.721Z,20.63
2022-10-09T10:46:39.133Z,20.59
2022-10-09T10:49:11.398Z,19.53
2022-10-09T10:52:13.470Z,20.39
2022-10-09T10:54:46.659Z,20.26
2022-10-09T10:57:26.228Z,20.08
2022-10-09T11:00:06.471Z,20.10
2022-10-09T11:02:58.405Z,20.13
2022-10-09T11:05:38.021Z,20.04
2022-10-09T11:08:40.193Z,20.04
2022-10-09T11:11:16.189Z,19.47
2022-10-09T11:14:07.171Z,19.75
2022-10-09T11:16:44.379Z,19.24
2022-10-09T11:19:45.258Z,19.79
2022-10-09T11:22:34.242Z,19.80
2022-10-09T11:25:26.511Z,19.78
2022-10-09T11:28:12.730Z,19.60
2022-10-09T11:30:48.563Z,19.77
2022-10-09T11:33:44.621Z,19.30
2022-10-09T11:36:33.173Z,19.70
2022-10-09T11:39:05.315Z,19.63
2022-10-09T11:41:35.523Z,19.44
2022-10-09T11:44:17.629Z,19.01
2022-10-09T11:47:13.347Z,19.37
2022-10-09T11:49:49.078Z,19.42
2022-10-09T11:52:40.802Z,19.33
2022-10-09T11:55:26.695Z,19.24
2022-10-09T11:57:53.764Z,19.02
2022-10-09T12:00:32.944Z,19.02
2022-10-09T12:03:03.491Z,18.46
2022-10-09T12:05:45.233Z,18.90
2022-10-09T12:08:19.196Z,18.31
2022-10-09T12:11:00.542Z,18.71
2022-10-09T12:13:53.808Z,18.66
2022-10-09T12:16:44.143Z,18.39
2022-10-09T12:19:36.294Z,18.55
2022-10-09T12:22:19.895Z,18.37
2022-10-09T12:24:53.334Z,17.95
2022-10-09T12:27:32.326Z,18.36
2022-10-09T12:30:11.625Z,18.39
2022-10-09T12:32:43.651Z,18.34
2022-10-09T12:35:24.691Z,18.33
2022-10-09T12:37:52.346Z,18.06
2022-10-09T12:40:25.543Z,17.92
2022-10-09T12:42:54.062Z,18.19
2022-10-09T12:45:27.830Z,18.11
2022-10-09T12:47:55.004Z,17.90
2022-10-09T12:50:32.366Z,17.45
2022-10-09T12:53:02.602Z,17.87
2022-10-09T12:55:34.674Z,17.85
2022-10-09T12:58:08.822Z,17.82
2022-10-09T13:00:36.340Z,17.75
2022-10-09T13:03:03.403Z,17.72
2022-10-09T13:05:42.499Z,17.78
2022-10-09T13:08:27.084Z,17.73
2022-10-09T13:10:55.143Z,17.67
2022-10-09T13:13:26.813Z,17.61
2022-10-09T13:16:02.306Z,17.53
2022-10-09T13:18:29.965Z,17.23
2022-10-09T13:21:03.067Z,17.02
2022-10-09T13:23:33.808Z,16.75
2022-10-09T13:26:06.197Z,16.41
2022-10-09T13:28:33.722Z,16.60
2022-10-09T13:31:08.610Z,16.50
2022-10-09T13:33:35.739Z,16.40
2022-10-09T13:36:02.770Z,16.35
2022-10-09T13:38:34.620Z,15.68
2022-10-09T13:41:02.088Z,16.07
2022-10-09T13:43:31.144Z,16.08
2022-10-09T13:45:58.205Z,15.89
2022-10-09T13:48:29.648Z,15.70
2022-10-09T13:50:59.241Z,15.83
2022-10-09T13:53:27.923Z,15.82
2022-10-09T13:56:00.026Z,15.20
2022-10-09T13:58:29.034Z,15.70
2022-10-09T14:00:56.228Z,15.54
2022-10-09T14:03:23.346Z,15.50
2022-10-09T14:05:50.542Z,15.52
2022-10-09T14:08:17.438Z,15.41
2022-10-09T14:10:44.730Z,15.29
2022-10-09T14:13:11.731Z,15.35
2022-10-09T14:15:40.335Z,15.18
2022-10-09T14:18:08.196Z,15.12
2022-10-09T14:20:36.003Z,15.04
2022-10-09T14:23:03.101Z,15.22
2022-10-09T14:25:30.051Z,14.89
2022-10-09T14:27:57.044Z,15.05
2022-10-09T14:30:24.079Z,14.59
2022-10-09T14:32:51.409Z,14.92
2022-10-09T14:35:21.611Z,14.74
2022-10-09T14:37:48.986Z,14.88
2022-10-09T14:40:16.330Z,14.72
2022-10-09T14:42:43.228Z,14.83
2022-10-09T14:45:10.816Z,14.29
2022-10-09T14:47:37.840Z,14.73
2022-10-09T14:50:05.408Z,14.67
2022-10-09T14:52:32.486Z,14.28
2022-10-09T14:54:59.619Z,14.63
2022-10-09T14:57:28.391Z,14.56
2022-10-09T14:59:57.330Z,14.15
2022-10-09T15:02:24.412Z,14.27
2022-10-09T15:04:51.870Z,14.38
2022-10-09T15:07:19.069Z,14.28
2022-10-09T15:09:46.083Z,14.28
2022-10-09T15:12:13.084Z,14.18
2022-10-09T15:14:40.104Z,14.03
2022-10-09T15:17:07.849Z,14.10
2022-10-09T15:19:34.887Z,14.11
2022-10-09T15:22:02.038Z,14.00
2022-10-09T15:24:29.034Z,14.02
2022-10-09T15:26:56.291Z,13.86
2022-10-09T15:29:23.512Z,13.67
2022-10-09T15:31:53.823Z,13.88
2022-10-09T15:34:20.879Z,13.88
2022-10-09T15:36:47.981Z,13.90
2022-10-09T15:39:15.633Z,13.74
2022-10-09T15:41:43.615Z,13.68
2022-10-09T15:44:28.823Z,13.82
2022-10-09T15:46:55.769Z,13.80
2022-10-09T15:49:22.770Z,13.74
2022-10-09T15:51:49.841Z,13.77
2022-10-09T15:54:16.959Z,13.34
2022-10-09T15:56:43.942Z,13.58
2022-10-09T15:59:13.470Z,13.58
2022-10-09T16:01:40.787Z,13.64
2022-10-09T16:04:07.883Z,13.59
2022-10-09T16:06:35.039Z,13.58
2022-10-09T16:09:04.138Z,13.65
2022-10-09T16:11:32.028Z,13.66
2022-10-09T16:13:59.407Z,13.66
2022-10-09T16:16:27.847Z,13.19
2022-10-09T16:18:55.983Z,13.58
2022-10-09T16:21:28.205Z,13.67
2022-10-09T16:23:58.809Z,13.11
2022-10-09T16:26:28.235Z,13.62
2022-10-09T16:28:55.513Z,13.51
2022-10-09T16:31:23.825Z,13.52
2022-10-09T16:33:51.179Z,13.30
2022-10-09T16:36:19.003Z,13.50
2022-10-09T16:38:46.211Z,13.47
2022-10-09T16:41:18.079Z,13.40
2022-10-09T16:43:47.533Z,13.29
2022-10-09T16:46:19.632Z,12.81
2022-10-09T16:48:47.938Z,13.27
2022-10-09T16:51:17.666Z,13.07
2022-10-09T16:53:45.120Z,13.26
2022-10-09T16:56:15.160Z,13.26
2022-10-09T16:58:43.869Z,13.23
2022-10-09T17:01:11.985Z,13.19
2022-10-09T17:03:41.212Z,13.11
2022-10-09T17:06:10.585Z,12.88
2022-10-09T17:08:38.099Z,13.04
2022-10-09T17:11:10.607Z,12.97
2022-10-09T17:13:38.168Z,12.53
2022-10-09T17:16:13.197Z,13.11
2022-10-09T17:18:42.984Z,13.10
2022-10-09T17:21:12.664Z,13.00
2022-10-09T17:23:39.719Z,13.09
2022-10-09T17:26:08.703Z,12.96
2022-10-09T17:28:36.157Z,13.02
2022-10-09T17:31:05.143Z,12.98
2022-10-09T17:33:33.149Z,12.84
2022-10-09T17:36:00.282Z,12.13
2022-10-09T17:38:27.343Z,12.95
2022-10-09T17:40:54.529Z,13.00
2022-10-09T17:43:21.558Z,12.93
2022-10-09T17:45:49.434Z,13.01
2022-10-09T17:48:16.550Z,12.99
2022-10-09T17:50:55.253Z,12.91
2022-10-09T17:53:23.027Z,13.07
2022-10-09T17:55:52.045Z,12.95
2022-10-09T17:58:20.412Z,12.34
2022-10-09T18:00:48.431Z,12.89
2022-10-09T18:03:16.429Z,12.93
2022-10-09T18:05:49.335Z,11.76
2022-10-09T18:08:18.856Z,12.64
2022-10-09T18:10:46.523Z,12.95
2022-10-09T18:13:14.365Z,12.98
2022-10-09T18:15:43.296Z,12.96
2022-10-09T18:18:11.416Z,12.92
2022-10-09T18:20:39.924Z,12.83
2022-10-09T18:23:08.315Z,12.72
2022-10-09T18:25:40.257Z,12.27
2022-10-09T18:28:07.727Z,12.52
2022-10-09T18:30:35.001Z,12.79
2022-10-09T18:33:01.901Z,12.80
2022-10-09T18:35:30.429Z,12.79
2022-10-09T18:37:57.619Z,12.82
2022-10-09T18:40:24.549Z,12.84
2022-10-09T18:42:52.664Z,12.71
2022-10-09T18:45:20.382Z,12.39
2022-10-09T18:47:47.808Z,12.71
2022-10-09T18:50:15.210Z,12.91
2022-10-09T18:52:43.569Z,12.92
2022-10-09T18:55:15.305Z,12.95
2022-10-09T18:57:42.551Z,12.25
2022-10-09T19:00:10.131Z,12.80
2022-10-09T19:02:37.073Z,12.81
2022-10-09T19:05:04.706Z,12.85
2022-10-09T19:07:31.793Z,12.77
2022-10-09T19:09:58.853Z,12.27
2022-10-09T19:12:27.127Z,12.90
2022-10-09T19:14:54.175Z,12.83
2022-10-09T19:17:21.223Z,12.73
2022-10-09T19:19:48.462Z,12.33
2022-10-09T19:22:19.035Z,12.93
2022-10-09T19:24:48.605Z,12.53
2022-10-09T19:27:15.609Z,12.85
2022-10-09T19:29:42.701Z,12.94
2022-10-09T19:32:09.754Z,12.95
2022-10-09T19:34:36.919Z,12.97
2022-10-09T19:39:38.361Z,12.86
2022-10-09T19:42:05.402Z,12.96
2022-10-09T19:44:32.474Z,12.97
2022-10-09T19:47:00.354Z,12.82
2022-10-09T19:49:31.704Z,12.92
2022-10-09T19:51:58.732Z,12.94
2022-10-09T19:54:25.731Z,12.35
2022-10-09T19:56:52.751Z,12.65
2022-10-09T19:59:19.814Z,13.02
2022-10-09T20:01:46.983Z,12.98
2022-10-09T20:04:14.133Z,13.02
2022-10-09T20:06:43.325Z,13.04
2022-10-09T20:09:12.158Z,13.02
2022-10-09T20:11:39.646Z,12.98
2022-10-09T20:14:07.304Z,12.91
2022-10-09T20:16:34.532Z,12.44
2022-10-09T20:19:02.657Z,12.99
2022-10-09T20:21:31.239Z,13.00
2022-10-09T20:23:59.501Z,12.76
2022-10-09T20:26:27.157Z,12.97
2022-10-09T20:28:54.244Z,13.06
2022-10-09T20:31:23.796Z,12.93
2022-10-09T20:33:53.480Z,13.06
2022-10-09T20:36:28.372Z,13.06
2022-10-09T20:38:57.473Z,13.09
2022-10-09T20:41:25.883Z,12.53
2022-10-09T20:43:53.872Z,13.01
2022-10-09T20:46:21.908Z,13.10
2022-10-09T20:48:49.060Z,13.12
2022-10-09T20:51:16.806Z,13.08
2022-10-09T20:53:45.112Z,12.67
2022-10-09T20:56:14.739Z,13.03
2022-10-09T20:58:42.187Z,13.07
2022-10-09T21:01:11.641Z,13.06
2022-10-09T21:03:39.326Z,12.84
2022-10-09T21:06:08.848Z,12.66
2022-10-09T21:08:36.355Z,13.04
2022-10-09T21:11:08.606Z,12.93
2022-10-09T21:13:36.712Z,12.99
2022-10-09T21:16:09.116Z,12.98
2022-10-09T21:18:36.748Z,12.99
2022-10-09T21:21:10.207Z,12.90
2022-10-09T21:23:37.792Z,12.79
2022-10-09T21:26:05.090Z,12.75
2022-10-09T21:28:32.331Z,12.92
2022-10-09T21:30:59.740Z,12.29
2022-10-09T21:33:26.810Z,12.42
2022-10-09T21:35:55.488Z,12.38
2022-10-09T21:38:23.765Z,12.86
2022-10-09T21:40:51.045Z,12.62
2022-10-09T21:43:18.740Z,12.66
2022-10-09T21:45:49.760Z,12.29
2022-10-09T21:48:17.132Z,12.43
2022-10-09T21:50:45.450Z,12.69
2022-10-09T21:53:12.728Z,12.16
2022-10-09T21:55:40.399Z,12.56
2022-10-09T21:58:08.006Z,12.38
2022-10-09T22:00:35.032Z,12.50
2022-10-09T22:03:02.161Z,12.57
2022-10-09T22:05:29.421Z,12.46
2022-10-09T22:07:56.715Z,12.65
2022-10-09T22:10:23.918Z,12.62
2022-10-09T22:12:51.213Z,12.51
2022-10-09T22:15:18.382Z,12.45
2022-10-09T22:17:45.476Z,11.25
2022-10-09T22:20:13.303Z,12.44
2022-10-09T22:22:40.900Z,12.35
2022-10-09T22:25:08.400Z,12.29
2022-10-09T22:27:35.472Z,12.43
2022-10-09T22:30:02.740Z,12.45
2022-10-09T22:32:30.550Z,12.44
2022-10-09T22:34:57.503Z,12.42
2022-10-09T22:37:24.655Z,12.42
2022-10-09T22:39:51.766Z,11.87
2022-10-09T22:42:19.381Z,12.38
2022-10-09T22:44:46.495Z,12.43
2022-10-09T22:47:13.541Z,12.02
2022-10-09T22:49:40.595Z,12.35
2022-10-09T22:52:07.672Z,12.23
2022-10-09T22:54:34.691Z,12.40
2022-10-09T22:57:01.812Z,12.23
2022-10-09T22:59:29.145Z,12.31
2022-10-09T23:01:57.635Z,12.20
2022-10-09T23:04:25.051Z,12.34
2022-10-09T23:06:58.028Z,12.25
2022-10-09T23:09:28.015Z,12.23
2022-10-09T23:11:55.590Z,12.33
2022-10-09T23:14:23.052Z,12.35
2022-10-09T23:16:50.152Z,12.30
2022-10-09T23:19:17.662Z,12.23
2022-10-09T23:21:46.075Z,12.24
2022-10-09T23:24:18.045Z,12.27
2022-10-09T23:26:51.979Z,12.32
2022-10-09T23:29:20.752Z,12.09
2022-10-09T23:31:51.387Z,12.21
2022-10-09T23:34:18.503Z,12.31
2022-10-09T23:36:45.527Z,12.25
2022-10-09T23:39:13.013Z,12.30
2022-10-09T23:41:40.099Z,12.22
2022-10-09T23:44:07.090Z,12.36
2022-10-09T23:46:34.260Z,12.32
2022-10-09T23:49:01.550Z,12.23
2022-10-09T23:51:29.519Z,12.11
2022-10-09T23:53:57.285Z,12.18
2022-10-09T23:56:30.243Z,11.68
2022-10-09T23:58:58.764Z,12.19
